Edelstein, Illinois
Current Conditions -  °F | °C
As of 4:10 PM on Tuesday 25 Nov 2014 (Local Time) from KC75 Reporting Station
Broken Clouds Broken Clouds  
Wind Chill: 18°   Ceiling: 1800
Heat Index: 26°   Visibility: 10mi
Dew Point: 19°   Wind: 7mph
Humidity: 75%   Direction: 280°W
Pressure: 30.16"   Gusts: NA
Location:  40.94°N, 89.63°W
Report Text: KC75 252210Z AUTO 28006KT 10SM BKN018 M03/M07 A3016 RMK AO2 T10351073
Loading
Personal Weather Stations






























Interactive Weather Map New forecast layout! Learn more

10-Day Weather Forecast

Advertisements
Track Severe Weather on mobile